Aeroporto :
LOGIN :

Iscrizione | Disclaimer

   EN    FR    IT 

 










Sommario :    VFR   VFR Marginale   IFR   IFR Intensivo   IFR Molto Intensivo
Visibilità : 
Base nubi : 
>= 8 km
>= 3000ft
5 / 8 km
1000 / 3000 ft
1500m / 5 km
500 / 1000 ft
800 / 1500m
200 / 500 ft
< 800m
< 200 ft
Simboli :   Temporali  Nebbia  Neve Forte  Precipitazioni Forti  Vento > 20 kt
SIGMETs :   Varie  Temporali  Ghiacco  Turbolenza  Onda orograficha  Ceneri Vulcaniche







- Altitudine del aeroporto : 1161 ft
- Codice IATA : RJL


LELO - Logroño-Agoncillo

ULTIMO METAR :
  • 252200Z AUTO 08003KT 010V140 9999 NCD 28/17 Q1015

METARs OBSOLETI :
  • 252130Z AUTO 04006KT 360V090 9999 NCD 29/17 Q1015
  • 252100Z 06006KT 020V100 CAVOK 30/15 Q1014
  • 252030Z 08007KT 040V110 CAVOK 31/16 Q1013
  • 252000Z 08008KT CAVOK 31/17 Q1013
  • 251930Z 08010KT 040V120 CAVOK 32/16 Q1013
  • 251900Z 09010KT 050V120 CAVOK 33/16 Q1013

TAF TAF LELO
Valido dal 25 a 18 ore il 26 a 03 ore UTC


251700Z 2518/2603 10010KT CAVOK
Nessun NOTAM noto per questo aeroporto.
1 SIGMET conosciuto per la FIR Madrid (LECM) :
 
Temporali affogati
LECM SIGMET 2 VALID 251911/252200 LEVA
LECM MADRID FIR/UIR EMBD TS OBS AT 1911Z N OF LINE N4320 W00350 - N43 W00520 TOP FL340 MOV NNE 25KT NC=



MetMap, La meteo Aeronautica in un colpo d'occhio ! - Copyright ORBIFLY Dicembre 2007 - Disclaimer

ORBIFLY MET'MAP TEAM :

Programmazione e sviluppo : Alexandra Zaïnal
Concezione e sviluppo : Baudouin d'Aumeries
Co-Programmazione e sviluppo : Marc-Olivier Méhu
Supporto tecnico e logistico : Manuel Goepfert
Aiuto per la traduzione : Arnaldo La Scala

Contatto : metmap@orbifly.com




FONTI E CREDITI :

   NOAA